createdAt,value
2022-08-17T00:00:42.757Z,99.90
2022-08-17T00:03:14.512Z,99.90
2022-08-17T00:05:50.670Z,99.90
2022-08-17T00:08:22.890Z,99.90
2022-08-17T00:10:51.434Z,99.90
2022-08-17T00:13:32.930Z,99.90
2022-08-17T00:16:12.175Z,99.90
2022-08-17T00:18:53.894Z,99.90
2022-08-17T00:22:29.989Z,99.90
2022-08-17T00:24:16.389Z,99.90
2022-08-17T00:30:53.869Z,99.90
2022-08-17T00:33:30.684Z,99.90
2022-08-17T00:39:57.974Z,99.90
2022-08-17T00:42:30.354Z,99.90
2022-08-17T00:44:58.819Z,99.90
2022-08-17T00:47:26.372Z,99.90
2022-08-17T00:49:53.651Z,99.90
2022-08-17T00:52:30.213Z,99.90
2022-08-17T00:54:59.095Z,99.90
2022-08-17T00:57:42.165Z,99.90
2022-08-17T01:00:26.112Z,99.90
2022-08-17T01:03:02.353Z,99.90
2022-08-17T01:05:34.119Z,99.90
2022-08-17T01:08:02.771Z,99.90
2022-08-17T01:10:58.416Z,99.90
2022-08-17T01:13:30.764Z,99.90
2022-08-17T01:19:57.778Z,99.90
2022-08-17T01:22:26.089Z,99.90
2022-08-17T01:25:00.796Z,99.90
2022-08-17T01:27:29.202Z,99.90
2022-08-17T01:30:05.374Z,99.90
2022-08-17T01:32:52.568Z,99.90
2022-08-17T01:35:20.190Z,99.90
2022-08-17T01:37:47.416Z,99.90
2022-08-17T01:40:35.225Z,99.90
2022-08-17T01:43:14.664Z,99.90
2022-08-17T01:45:47.904Z,99.90
2022-08-17T01:48:36.592Z,99.90
2022-08-17T01:51:06.949Z,99.90
2022-08-17T01:53:44.442Z,99.90
2022-08-17T01:56:17.124Z,99.90
2022-08-17T01:58:46.017Z,99.90
2022-08-17T02:01:15.728Z,99.90
2022-08-17T02:03:53.455Z,99.90
2022-08-17T02:06:43.954Z,99.90
2022-08-17T02:09:17.070Z,99.90
2022-08-17T02:11:46.292Z,99.90
2022-08-17T02:14:14.461Z,99.90
2022-08-17T02:16:42.144Z,99.90
2022-08-17T02:19:15.767Z,99.90
2022-08-17T02:21:48.313Z,99.90
2022-08-17T02:24:58.909Z,99.90
2022-08-17T02:27:19.558Z,99.90
2022-08-17T02:29:46.757Z,99.90
2022-08-17T02:32:28.045Z,99.90
2022-08-17T02:35:01.295Z,99.90
2022-08-17T02:37:30.389Z,99.90
2022-08-17T02:39:58.988Z,99.90
2022-08-17T02:42:40.489Z,99.90
2022-08-17T02:49:17.230Z,99.90
2022-08-17T02:51:44.519Z,99.90
2022-08-17T02:54:40.471Z,99.90
2022-08-17T02:56:59.022Z,99.90
2022-08-17T02:59:26.302Z,99.90
2022-08-17T03:01:53.635Z,99.90
2022-08-17T03:04:20.996Z,99.90
2022-08-17T03:06:48.445Z,99.90
2022-08-17T03:09:15.633Z,99.90
2022-08-17T03:11:43.372Z,99.90
2022-08-17T03:14:10.693Z,99.90
2022-08-17T03:16:37.919Z,99.90
2022-08-17T03:19:06.471Z,99.90
2022-08-17T03:25:37.276Z,99.90
2022-08-17T03:28:07.030Z,99.90
2022-08-17T03:34:44.281Z,99.90
2022-08-17T03:37:11.466Z,99.90
2022-08-17T03:39:39.145Z,99.90
2022-08-17T03:42:32.331Z,99.90
2022-08-17T03:45:16.685Z,99.90
2022-08-17T03:47:44.124Z,99.90
2022-08-17T03:54:21.313Z,99.90
2022-08-17T04:06:07.439Z,99.90
2022-08-17T04:08:34.757Z,99.90
2022-08-17T06:29:23.611Z,99.90
2022-08-17T06:31:50.934Z,99.90
2022-08-17T06:34:18.177Z,99.90
2022-08-17T06:37:20.282Z,99.90
2022-08-17T06:40:05.380Z,99.90
2022-08-17T06:43:11.807Z,99.90
2022-08-17T06:46:06.379Z,99.90
2022-08-17T06:48:58.834Z,99.90
2022-08-17T06:51:37.966Z,99.90
2022-08-17T06:54:13.290Z,99.90
2022-08-17T06:56:55.579Z,99.90
2022-08-17T06:59:36.379Z,99.90
2022-08-17T07:02:52.768Z,99.90
2022-08-17T07:05:35.623Z,99.90
2022-08-17T07:08:39.409Z,99.90
2022-08-17T07:11:31.790Z,99.90
2022-08-17T07:14:17.900Z,99.90
2022-08-17T07:16:58.279Z,99.90
2022-08-17T07:19:33.020Z,99.90
2022-08-17T07:22:05.814Z,99.90
2022-08-17T07:24:57.309Z,99.90
2022-08-17T07:27:32.886Z,99.90
2022-08-17T07:30:10.690Z,99.90
2022-08-17T07:32:44.261Z,99.90
2022-08-17T07:35:40.800Z,99.90
2022-08-17T07:38:26.305Z,99.90
2022-08-17T07:40:57.350Z,99.90
2022-08-17T07:43:39.974Z,99.90
2022-08-17T07:46:22.718Z,99.90
2022-08-17T07:48:55.171Z,99.90
2022-08-17T07:51:34.631Z,99.90
2022-08-17T07:54:21.660Z,99.90
2022-08-17T07:56:55.134Z,99.90
2022-08-17T07:59:39.064Z,99.90
2022-08-17T08:02:28.970Z,99.90
2022-08-17T08:05:31.723Z,99.90
2022-08-17T08:08:43.655Z,99.90
2022-08-17T08:11:29.998Z,99.90
2022-08-17T08:14:28.603Z,99.90
2022-08-17T08:17:02.950Z,99.90
2022-08-17T08:19:33.271Z,99.90
2022-08-17T08:22:11.403Z,99.90
2022-08-17T08:25:19.291Z,99.90
2022-08-17T08:28:16.208Z,99.90
2022-08-17T08:31:42.859Z,99.90
2022-08-17T08:35:02.218Z,99.90
2022-08-17T08:38:01.745Z,99.90
2022-08-17T08:41:07.928Z,99.90
2022-08-17T08:43:52.250Z,99.90
2022-08-17T08:46:55.933Z,99.90
2022-08-17T08:50:03.297Z,99.90
2022-08-17T08:53:11.867Z,99.90
2022-08-17T08:56:06.703Z,99.90
2022-08-17T08:58:54.245Z,99.90
2022-08-17T09:01:57.372Z,99.90
2022-08-17T09:05:13.973Z,99.90
2022-08-17T09:08:21.598Z,99.90
2022-08-17T09:11:19.477Z,99.90
2022-08-17T09:14:43.064Z,99.90
2022-08-17T09:17:19.340Z,99.90
2022-08-17T09:20:14.417Z,99.90
2022-08-17T09:23:41.631Z,99.90
2022-08-17T09:26:29.654Z,99.90
2022-08-17T09:29:06.397Z,99.90
2022-08-17T09:31:49.714Z,99.90
2022-08-17T09:34:31.885Z,99.90
2022-08-17T09:37:26.160Z,99.90
2022-08-17T09:40:14.433Z,99.90
2022-08-17T09:43:16.432Z,99.90
2022-08-17T09:46:14.288Z,99.90
2022-08-17T09:49:06.822Z,99.90
2022-08-17T09:51:42.917Z,99.90
2022-08-17T09:54:41.153Z,99.90
2022-08-17T09:57:43.943Z,99.90
2022-08-17T10:00:20.135Z,99.90
2022-08-17T10:03:40.893Z,99.90
2022-08-17T10:06:24.853Z,99.90
2022-08-17T10:09:17.312Z,99.90
2022-08-17T10:11:57.603Z,99.90
2022-08-17T10:14:46.350Z,99.90
2022-08-17T10:23:13.843Z,99.90
2022-08-17T10:26:07.218Z,99.90
2022-08-17T10:28:46.234Z,99.90
2022-08-17T10:31:38.309Z,99.90
2022-08-17T10:34:41.494Z,99.90
2022-08-17T10:37:47.589Z,99.90
2022-08-17T10:40:29.785Z,99.90
2022-08-17T10:43:15.158Z,99.90
2022-08-17T10:49:44.251Z,99.90
2022-08-17T10:52:20.675Z,99.90
2022-08-17T10:55:14.512Z,99.90
2022-08-17T10:57:46.714Z,99.90
2022-08-17T11:00:27.729Z,99.90
2022-08-17T11:02:57.053Z,99.90
2022-08-17T11:12:06.069Z,99.40
2022-08-17T11:15:00.804Z,99.90
2022-08-17T11:18:15.197Z,99.70
2022-08-17T11:21:12.969Z,99.60
2022-08-17T11:30:03.090Z,99.30
2022-08-17T11:32:54.391Z,99.90
2022-08-17T11:35:22.095Z,99.90
2022-08-17T11:38:07.767Z,99.80
2022-08-17T11:40:51.573Z,99.60
2022-08-17T11:43:42.807Z,99.00
2022-08-17T11:46:40.058Z,98.80
2022-08-17T11:49:22.915Z,98.60
2022-08-17T11:52:02.160Z,99.00
2022-08-17T11:54:43.247Z,98.80
2022-08-17T11:57:27.714Z,97.10
2022-08-17T11:59:56.249Z,97.00
2022-08-17T12:03:26.018Z,96.00
2022-08-17T12:06:49.685Z,96.80
2022-08-17T12:09:25.048Z,96.80
2022-08-17T12:12:34.524Z,96.10
2022-08-17T12:15:10.465Z,96.60
2022-08-17T12:17:41.134Z,96.10
2022-08-17T12:20:29.885Z,95.80
2022-08-17T12:27:03.463Z,97.10
2022-08-17T12:29:38.845Z,96.40
2022-08-17T12:32:15.593Z,96.10
2022-08-17T12:34:45.315Z,96.60
2022-08-17T12:37:26.885Z,96.40
2022-08-17T12:40:07.653Z,96.90
2022-08-17T12:42:39.623Z,95.90
2022-08-17T12:45:33.697Z,95.60
2022-08-17T12:48:09.804Z,95.60
2022-08-17T12:50:44.805Z,94.50
2022-08-17T12:53:24.092Z,94.70
2022-08-17T12:59:32.624Z,93.60
2022-08-17T13:02:01.278Z,94.10
2022-08-17T13:04:29.725Z,94.50
2022-08-17T13:06:59.937Z,94.70
2022-08-17T13:09:36.038Z,94.50
2022-08-17T13:12:08.704Z,94.80
2022-08-17T13:14:35.996Z,94.10
2022-08-17T13:17:07.158Z,94.20
2022-08-17T13:19:49.525Z,92.60
2022-08-17T13:22:22.655Z,92.20
2022-08-17T13:24:54.821Z,93.30
2022-08-17T13:27:25.949Z,92.70
2022-08-17T13:30:08.079Z,93.10
2022-08-17T13:32:44.312Z,92.40
2022-08-17T13:35:39.435Z,93.80
2022-08-17T13:38:32.632Z,95.30
2022-08-17T13:40:59.860Z,95.40
2022-08-17T13:43:46.475Z,96.60
2022-08-17T13:46:30.357Z,96.70
2022-08-17T13:49:06.025Z,97.70
2022-08-17T13:51:44.519Z,97.90
2022-08-17T13:54:35.415Z,98.00
2022-08-17T13:57:19.533Z,97.70
2022-08-17T13:59:54.867Z,97.90
2022-08-17T14:02:25.999Z,96.80
2022-08-17T14:04:57.590Z,97.00
2022-08-17T14:07:34.845Z,97.80
2022-08-17T14:10:17.797Z,96.50
2022-08-17T14:12:46.103Z,96.40
2022-08-17T14:15:18.832Z,97.00
2022-08-17T14:17:47.556Z,96.20
2022-08-17T14:20:17.328Z,96.00
2022-08-17T14:22:48.758Z,95.60
2022-08-17T14:25:23.139Z,95.90
2022-08-17T14:27:53.793Z,95.80
2022-08-17T14:30:28.964Z,96.70
2022-08-17T14:32:59.670Z,96.50
2022-08-17T14:35:27.143Z,96.30
2022-08-17T14:37:54.460Z,96.30
2022-08-17T14:40:24.367Z,97.30
2022-08-17T14:42:53.960Z,97.30
2022-08-17T14:45:31.723Z,97.60
2022-08-17T14:48:01.379Z,98.10
2022-08-17T14:50:28.619Z,98.80
2022-08-17T14:52:55.835Z,98.90
2022-08-17T14:55:25.415Z,99.00
2022-08-17T14:57:53.073Z,99.80
2022-08-17T15:00:20.406Z,98.90
2022-08-17T15:02:52.914Z,99.20
2022-08-17T15:05:27.526Z,99.90
2022-08-17T15:07:54.707Z,99.90
2022-08-17T15:10:22.514Z,99.80
2022-08-17T15:12:50.262Z,99.50
2022-08-17T15:15:18.492Z,99.40
2022-08-17T15:17:46.253Z,98.70
2022-08-17T15:20:27.620Z,98.50
2022-08-17T15:26:54.323Z,99.10
2022-08-17T15:29:21.526Z,99.80
2022-08-17T15:31:48.774Z,99.80
2022-08-17T15:34:16.049Z,99.90
2022-08-17T15:36:49.261Z,99.70
2022-08-17T15:39:19.667Z,99.60
2022-08-17T15:41:47.123Z,99.90
2022-08-17T15:44:32.704Z,99.90
2022-08-17T15:47:02.446Z,99.70
2022-08-17T15:49:29.664Z,99.90
2022-08-17T15:51:56.822Z,99.90
2022-08-17T15:54:23.975Z,99.90
2022-08-17T15:56:51.409Z,99.90
2022-08-17T15:59:18.563Z,99.90
2022-08-17T16:03:01.430Z,99.90
2022-08-17T16:04:33.115Z,99.90
2022-08-17T16:07:00.725Z,99.90
2022-08-17T16:09:28.424Z,99.90
2022-08-17T16:11:56.498Z,99.90
2022-08-17T16:14:25.349Z,99.90
2022-08-17T16:17:04.286Z,99.90
2022-08-17T16:19:33.255Z,99.90
2022-08-17T16:22:00.519Z,99.90
2022-08-17T16:24:28.268Z,99.90
2022-08-17T16:26:55.531Z,99.90
2022-08-17T16:29:23.346Z,99.90
2022-08-17T16:31:51.155Z,99.90
2022-08-17T16:34:18.794Z,99.90
2022-08-17T16:36:55.473Z,99.90
2022-08-17T16:39:28.156Z,99.90
2022-08-17T16:41:56.609Z,99.90
2022-08-17T16:44:24.620Z,99.90
2022-08-17T16:46:51.802Z,99.90
2022-08-17T16:49:24.472Z,99.90
2022-08-17T16:52:10.036Z,99.90
2022-08-17T16:54:44.382Z,99.90
2022-08-17T16:57:16.027Z,99.90
2022-08-17T16:59:48.132Z,99.90
2022-08-17T17:02:31.565Z,99.90
2022-08-17T17:05:13.680Z,99.90
2022-08-17T17:08:08.702Z,99.90
2022-08-17T17:11:03.586Z,99.90
2022-08-17T17:13:57.994Z,99.90
2022-08-17T17:16:40.207Z,99.90
2022-08-17T17:19:34.468Z,99.90
2022-08-17T17:22:13.859Z,99.90
2022-08-17T17:25:14.781Z,99.90
2022-08-17T17:28:05.979Z,99.90
2022-08-17T17:31:02.084Z,99.90
2022-08-17T17:33:41.180Z,99.90
2022-08-17T17:36:37.400Z,99.90
2022-08-17T17:42:00.179Z,99.90
2022-08-17T17:44:46.891Z,99.90
2022-08-17T17:47:20.590Z,99.90
2022-08-17T17:49:47.852Z,99.90
2022-08-17T17:52:48.621Z,99.90
2022-08-17T17:55:53.741Z,99.90
2022-08-17T17:58:42.924Z,99.90
2022-08-17T18:01:54.205Z,99.90
2022-08-17T18:04:43.405Z,99.90
2022-08-17T18:07:42.728Z,99.90
2022-08-17T18:10:30.367Z,99.90
2022-08-17T18:13:17.382Z,99.90
2022-08-17T18:15:52.438Z,99.90
2022-08-17T18:18:38.167Z,99.90
2022-08-17T18:21:16.846Z,99.90
2022-08-17T18:23:52.312Z,99.90
2022-08-17T18:26:43.790Z,99.90
2022-08-17T18:29:41.614Z,99.90
2022-08-17T18:32:24.831Z,99.90
2022-08-17T18:35:01.829Z,99.90
2022-08-17T18:38:19.959Z,99.90
2022-08-17T18:41:00.635Z,99.90
2022-08-17T18:43:53.002Z,99.90
2022-08-17T18:46:37.645Z,99.90
2022-08-17T18:49:28.148Z,99.90
2022-08-17T18:52:26.063Z,99.90
2022-08-17T18:55:24.141Z,99.90
2022-08-17T18:57:59.635Z,99.90
2022-08-17T19:00:39.394Z,99.90
2022-08-17T19:03:16.103Z,99.90
2022-08-17T19:06:15.958Z,99.90
2022-08-17T19:08:43.307Z,99.90
2022-08-17T19:11:21.338Z,99.90
2022-08-17T19:14:08.949Z,99.90
2022-08-17T19:16:43.930Z,99.90
2022-08-17T19:19:27.155Z,99.90
2022-08-17T19:22:28.735Z,99.90
2022-08-17T19:25:21.891Z,99.90
2022-08-17T19:27:57.286Z,99.90
2022-08-17T19:30:25.752Z,99.90
2022-08-17T19:32:53.007Z,99.90
2022-08-17T19:35:24.774Z,99.90
